createdAt,value
2022-12-03T00:00:36.105Z,2.60
2022-12-03T00:03:03.038Z,2.60
2022-12-03T00:05:29.863Z,2.70
2022-12-03T00:07:57.042Z,2.70
2022-12-03T00:10:23.806Z,2.70
2022-12-03T00:12:50.580Z,2.70
2022-12-03T00:15:17.459Z,2.70
2022-12-03T00:17:44.163Z,2.70
2022-12-03T00:20:17.886Z,2.70
2022-12-03T00:22:44.654Z,2.70
2022-12-03T00:25:11.374Z,2.70
2022-12-03T00:27:38.075Z,2.80
2022-12-03T00:30:06.076Z,2.70
2022-12-03T00:32:35.942Z,2.70
2022-12-03T00:35:02.746Z,2.70
2022-12-03T00:37:30.081Z,2.70
2022-12-03T00:39:57.129Z,2.70
2022-12-03T00:42:23.832Z,2.70
2022-12-03T00:44:50.790Z,2.70
2022-12-03T00:47:17.784Z,2.70
2022-12-03T00:49:44.442Z,2.60
2022-12-03T00:52:11.374Z,2.60
2022-12-03T00:54:38.094Z,2.60
2022-12-03T00:57:04.862Z,2.60
2022-12-03T00:59:31.602Z,2.60
2022-12-03T01:01:58.342Z,2.50
2022-12-03T01:04:25.133Z,2.50
2022-12-03T01:06:51.857Z,2.50
2022-12-03T01:09:18.629Z,2.50
2022-12-03T01:11:45.312Z,2.50
2022-12-03T01:14:15.526Z,2.50
2022-12-03T01:16:42.857Z,2.50
2022-12-03T01:19:10.732Z,2.50
2022-12-03T01:21:37.784Z,2.50
2022-12-03T01:24:04.818Z,2.60
2022-12-03T01:26:31.610Z,2.60
2022-12-03T01:28:58.294Z,2.50
2022-12-03T01:31:43.561Z,2.50
2022-12-03T01:34:10.243Z,2.50
2022-12-03T01:36:36.888Z,2.50
2022-12-03T01:39:04.280Z,2.50
2022-12-03T01:41:32.417Z,2.60
2022-12-03T01:43:59.704Z,2.60
2022-12-03T01:46:40.711Z,2.60
2022-12-03T01:49:15.024Z,2.60
2022-12-03T01:51:41.966Z,2.60
2022-12-03T01:54:19.475Z,2.60
2022-12-03T01:56:47.296Z,2.60
2022-12-03T01:59:19.950Z,2.50
2022-12-03T02:01:46.653Z,2.50
2022-12-03T02:04:15.220Z,2.60
2022-12-03T02:06:43.306Z,2.60
2022-12-03T02:09:11.999Z,2.60
2022-12-03T02:11:46.860Z,2.60
2022-12-03T02:14:20.091Z,2.60
2022-12-03T02:16:47.043Z,2.60
2022-12-03T02:19:24.322Z,2.60
2022-12-03T02:21:58.698Z,2.60
2022-12-03T02:24:36.834Z,2.60
2022-12-03T02:27:03.591Z,2.70
2022-12-03T02:29:30.534Z,2.70
2022-12-03T02:31:57.488Z,2.70
2022-12-03T02:34:42.665Z,2.70
2022-12-03T02:37:17.448Z,2.80
2022-12-03T02:39:50.113Z,2.80
2022-12-03T02:42:36.373Z,2.80
2022-12-03T02:45:13.897Z,2.80
2022-12-03T02:47:46.581Z,2.80
2022-12-03T02:50:17.393Z,2.80
2022-12-03T02:52:45.984Z,2.80
2022-12-03T02:55:15.401Z,2.80
2022-12-03T02:57:44.658Z,2.80
2022-12-03T03:00:12.402Z,2.80
2022-12-03T03:02:41.746Z,2.80
2022-12-03T03:05:11.719Z,2.90
2022-12-03T03:07:39.709Z,2.90
2022-12-03T03:10:09.315Z,2.90
2022-12-03T03:12:39.337Z,2.80
2022-12-03T03:15:07.489Z,2.80
2022-12-03T03:17:34.489Z,2.90
2022-12-03T03:20:02.009Z,2.90
2022-12-03T03:22:34.123Z,2.90
2022-12-03T03:25:01.215Z,2.90
2022-12-03T03:27:28.751Z,2.90
2022-12-03T03:29:57.957Z,2.90
2022-12-03T03:32:26.441Z,2.90
2022-12-03T03:34:53.671Z,2.90
2022-12-03T03:37:20.823Z,2.90
2022-12-03T03:39:47.818Z,3.00
2022-12-03T03:42:14.693Z,2.90
2022-12-03T03:44:41.508Z,3.00
2022-12-03T03:47:08.317Z,3.10
2022-12-03T03:49:35.470Z,3.10
2022-12-03T03:52:02.433Z,3.10
2022-12-03T03:54:29.299Z,3.00
2022-12-03T03:56:56.154Z,3.00
2022-12-03T03:59:22.888Z,3.00
2022-12-03T04:01:49.722Z,3.00
2022-12-03T04:04:22.013Z,3.10
2022-12-03T04:06:49.068Z,3.10
2022-12-03T04:09:16.250Z,3.10
2022-12-03T04:12:01.685Z,3.10
2022-12-03T04:14:28.490Z,3.10
2022-12-03T04:16:55.336Z,3.10
2022-12-03T04:19:22.058Z,3.00
2022-12-03T04:22:07.441Z,3.10
2022-12-03T04:24:34.149Z,3.10
2022-12-03T04:27:19.641Z,3.10
2022-12-03T04:29:46.359Z,3.10
2022-12-03T04:32:31.666Z,3.10
2022-12-03T04:35:36.685Z,3.10
2022-12-03T04:38:03.455Z,3.10
2022-12-03T04:40:48.645Z,3.10
2022-12-03T04:43:15.317Z,3.10
2022-12-03T04:45:42.034Z,3.20
2022-12-03T04:48:08.992Z,3.20
2022-12-03T04:50:35.631Z,3.10
2022-12-03T04:53:02.352Z,3.00
2022-12-03T04:55:29.347Z,3.10
2022-12-03T04:57:56.170Z,3.20
2022-12-03T05:00:23.074Z,3.10
2022-12-03T05:02:49.910Z,3.00
2022-12-03T05:05:17.222Z,3.10
2022-12-03T05:07:44.073Z,3.10
2022-12-03T05:10:12.141Z,3.10
2022-12-03T05:12:38.830Z,3.10
2022-12-03T05:15:06.329Z,3.20
2022-12-03T05:17:33.378Z,3.30
2022-12-03T05:20:19.120Z,3.30
2022-12-03T05:22:46.008Z,3.20
2022-12-03T05:25:12.673Z,3.30
2022-12-03T05:27:39.613Z,3.20
2022-12-03T05:30:07.130Z,3.30
2022-12-03T05:32:33.802Z,3.30
2022-12-03T05:35:00.490Z,3.20
2022-12-03T05:37:27.151Z,3.10
2022-12-03T05:39:53.965Z,3.10
2022-12-03T05:42:39.125Z,3.10
2022-12-03T05:45:06.440Z,3.00
2022-12-03T05:47:33.409Z,3.10
2022-12-03T05:50:00.114Z,3.10
2022-12-03T05:52:26.961Z,3.10
2022-12-03T05:54:54.389Z,3.10
2022-12-03T05:57:21.258Z,3.10
2022-12-03T05:59:47.919Z,3.10
2022-12-03T06:02:14.740Z,3.10
2022-12-03T06:04:41.488Z,3.10
2022-12-03T06:07:13.603Z,3.10
2022-12-03T06:09:40.756Z,3.10
2022-12-03T06:12:08.718Z,3.10
2022-12-03T06:14:35.697Z,3.10
2022-12-03T06:17:03.029Z,3.10
2022-12-03T06:19:29.645Z,3.10
2022-12-03T06:21:56.363Z,3.00
2022-12-03T06:24:23.027Z,3.00
2022-12-03T06:26:49.652Z,3.00
2022-12-03T06:29:16.276Z,2.90
2022-12-03T06:31:43.039Z,3.00
2022-12-03T06:34:09.918Z,3.00
2022-12-03T06:36:36.744Z,3.00
2022-12-03T06:39:03.925Z,3.00
2022-12-03T06:41:31.379Z,3.10
2022-12-03T06:43:58.269Z,3.00
2022-12-03T06:46:25.421Z,3.00
2022-12-03T06:48:52.197Z,3.10
2022-12-03T06:51:19.021Z,3.10
2022-12-03T06:53:45.734Z,3.00
2022-12-03T06:56:12.502Z,3.00
2022-12-03T06:58:39.182Z,2.90
2022-12-03T07:01:05.965Z,2.90
2022-12-03T07:03:32.645Z,2.90
2022-12-03T07:05:59.344Z,2.90
2022-12-03T07:08:26.420Z,2.90
2022-12-03T07:10:53.326Z,2.80
2022-12-03T07:13:20.290Z,2.90
2022-12-03T07:15:47.118Z,2.80
2022-12-03T07:18:13.944Z,2.80
2022-12-03T07:20:40.856Z,2.80
2022-12-03T07:23:07.686Z,2.80
2022-12-03T07:25:34.471Z,2.80
2022-12-03T07:28:01.222Z,2.80
2022-12-03T07:30:28.065Z,2.70
2022-12-03T07:32:57.113Z,2.70
2022-12-03T07:35:23.906Z,2.70
2022-12-03T07:37:50.641Z,2.60
2022-12-03T07:40:17.875Z,2.60
2022-12-03T07:42:44.603Z,2.70
2022-12-03T07:45:11.673Z,2.60
2022-12-03T07:47:38.494Z,2.70
2022-12-03T07:50:05.635Z,2.70
2022-12-03T07:52:32.478Z,2.70
2022-12-03T07:54:59.232Z,2.70
2022-12-03T07:57:25.889Z,2.70
2022-12-03T07:59:52.605Z,2.70
2022-12-03T08:02:21.550Z,2.70
2022-12-03T08:04:48.663Z,2.60
2022-12-03T08:07:15.392Z,2.60
2022-12-03T08:09:42.639Z,2.70
2022-12-03T08:12:17.429Z,2.60
2022-12-03T08:14:44.594Z,2.60
2022-12-03T08:17:12.965Z,2.60
2022-12-03T08:19:44.922Z,2.60
2022-12-03T08:22:14.237Z,2.60
2022-12-03T08:24:41.556Z,2.60
2022-12-03T08:27:19.716Z,2.60
2022-12-03T08:29:46.777Z,2.60
2022-12-03T08:32:13.914Z,2.60
2022-12-03T08:34:42.846Z,2.60
2022-12-03T08:37:18.102Z,2.50
2022-12-03T08:39:50.234Z,2.50
2022-12-03T08:42:41.186Z,2.50
2022-12-03T08:45:29.006Z,2.50
2022-12-03T08:48:33.666Z,2.50
2022-12-03T08:51:05.208Z,2.60
2022-12-03T08:53:37.577Z,2.50
2022-12-03T08:56:23.981Z,2.60
2022-12-03T08:59:00.580Z,2.70
2022-12-03T09:01:37.440Z,2.70
2022-12-03T09:04:38.626Z,2.70
2022-12-03T09:07:05.475Z,2.70
2022-12-03T09:09:35.038Z,2.70
2022-12-03T09:12:03.633Z,2.60
2022-12-03T09:14:30.302Z,2.60
2022-12-03T09:16:57.118Z,2.60
2022-12-03T09:19:30.854Z,2.60
2022-12-03T09:21:57.525Z,2.60
2022-12-03T09:24:24.240Z,2.70
2022-12-03T09:26:51.029Z,2.60
2022-12-03T09:29:17.688Z,2.60
2022-12-03T09:31:44.384Z,2.60
2022-12-03T09:34:11.326Z,2.60
2022-12-03T09:36:38.186Z,2.50
2022-12-03T09:39:05.386Z,2.60
2022-12-03T09:41:32.375Z,2.60
2022-12-03T09:44:08.611Z,2.60
2022-12-03T09:46:39.673Z,2.60
2022-12-03T09:49:13.992Z,2.60
2022-12-03T09:51:43.328Z,2.50
2022-12-03T09:54:20.783Z,2.60
2022-12-03T09:56:47.535Z,2.50
2022-12-03T09:59:15.076Z,2.50
2022-12-03T10:01:42.834Z,2.50
2022-12-03T10:04:10.081Z,2.40
2022-12-03T10:06:40.973Z,2.30
2022-12-03T10:09:13.101Z,2.50
2022-12-03T10:11:40.183Z,2.50
2022-12-03T10:14:06.932Z,2.50
2022-12-03T10:16:36.146Z,2.40
2022-12-03T10:19:03.167Z,2.40
2022-12-03T10:21:36.765Z,2.40
2022-12-03T10:24:21.825Z,2.30
2022-12-03T10:26:51.361Z,2.30
2022-12-03T10:29:28.189Z,2.20
2022-12-03T10:32:01.098Z,2.20
2022-12-03T10:34:30.802Z,2.20
2022-12-03T10:37:12.646Z,2.20
2022-12-03T10:40:01.635Z,2.20
2022-12-03T10:42:32.302Z,2.20
2022-12-03T10:45:18.061Z,2.10
2022-12-03T10:48:04.071Z,2.10
2022-12-03T10:50:31.089Z,2.10
2022-12-03T10:52:57.833Z,2.10
2022-12-03T10:55:25.157Z,2.20
2022-12-03T10:57:52.130Z,2.10
2022-12-03T11:00:22.850Z,2.20
2022-12-03T11:02:56.487Z,2.20
2022-12-03T11:05:27.466Z,2.10
2022-12-03T11:07:54.560Z,2.10
2022-12-03T11:10:21.808Z,2.10
2022-12-03T11:13:26.972Z,2.10
2022-12-03T11:15:54.113Z,2.10
2022-12-03T11:18:37.151Z,2.10
2022-12-03T11:21:06.938Z,2.10
2022-12-03T11:23:46.151Z,2.00
2022-12-03T11:26:28.995Z,2.10
2022-12-03T11:28:59.856Z,2.00
2022-12-03T11:31:36.209Z,2.00
2022-12-03T11:34:18.305Z,2.10
2022-12-03T11:37:10.187Z,2.00
2022-12-03T11:39:53.138Z,2.10
2022-12-03T11:42:26.026Z,2.10
2022-12-03T11:45:10.979Z,2.10
2022-12-03T11:47:43.851Z,2.10
2022-12-03T11:50:22.727Z,2.10
2022-12-03T11:53:00.266Z,2.10
2022-12-03T11:55:34.672Z,2.10
2022-12-03T11:58:04.394Z,2.10
2022-12-03T12:00:31.454Z,2.10
2022-12-03T12:02:59.353Z,2.00
2022-12-03T12:05:33.680Z,2.00
2022-12-03T12:08:02.516Z,2.00
2022-12-03T12:10:46.537Z,2.00
2022-12-03T12:13:32.540Z,2.10
2022-12-03T12:16:05.364Z,2.10
2022-12-03T12:18:53.711Z,2.10
2022-12-03T12:21:50.222Z,2.00
2022-12-03T12:24:31.663Z,2.10
2022-12-03T12:27:01.186Z,2.10
2022-12-03T12:29:28.460Z,2.10
2022-12-03T12:32:16.775Z,2.20
2022-12-03T12:34:46.923Z,2.20
2022-12-03T12:37:25.569Z,2.20
2022-12-03T12:39:56.410Z,2.10
2022-12-03T12:42:30.211Z,2.20
2022-12-03T12:45:17.906Z,2.10
2022-12-03T12:48:24.109Z,2.10
2022-12-03T12:51:09.536Z,2.10
2022-12-03T12:53:38.758Z,2.10
2022-12-03T12:56:26.690Z,2.10
2022-12-03T12:58:54.536Z,2.10
2022-12-03T13:01:28.058Z,2.10
2022-12-03T13:03:55.571Z,2.10
2022-12-03T13:06:26.875Z,2.10
2022-12-03T13:08:55.168Z,2.10
2022-12-03T13:11:24.940Z,2.10
2022-12-03T13:13:52.207Z,2.10
2022-12-03T13:16:33.005Z,2.00
2022-12-03T13:19:01.246Z,2.10
2022-12-03T13:21:42.713Z,2.10
2022-12-03T13:24:26.767Z,2.10
2022-12-03T13:26:53.526Z,2.10
2022-12-03T13:29:22.951Z,2.00
2022-12-03T13:32:01.450Z,1.90
2022-12-03T13:34:36.437Z,1.80
2022-12-03T13:37:13.039Z,1.80
2022-12-03T13:39:47.814Z,1.80
2022-12-03T13:42:33.143Z,1.80
2022-12-03T13:45:01.731Z,1.70
2022-12-03T13:47:28.678Z,1.70
2022-12-03T13:49:58.978Z,1.70
2022-12-03T13:52:26.615Z,1.70
2022-12-03T13:54:55.904Z,1.70
2022-12-03T13:57:23.135Z,1.70
2022-12-03T13:59:49.857Z,1.70
2022-12-03T14:02:16.755Z,1.60
2022-12-03T14:04:46.353Z,1.50
2022-12-03T14:07:13.042Z,1.60
2022-12-03T14:09:41.230Z,1.70
2022-12-03T14:12:26.163Z,1.60
2022-12-03T14:14:53.706Z,1.60
2022-12-03T14:17:20.768Z,1.70
2022-12-03T14:19:47.502Z,1.60
2022-12-03T14:22:14.239Z,1.60
2022-12-03T14:24:41.134Z,1.50
2022-12-03T14:27:08.146Z,1.60
2022-12-03T14:29:34.968Z,1.60
2022-12-03T14:32:02.167Z,1.50
2022-12-03T14:34:28.921Z,1.50
2022-12-03T14:36:59.426Z,1.50
2022-12-03T14:39:28.275Z,1.50
2022-12-03T14:42:15.000Z,1.50
2022-12-03T14:44:47.641Z,1.60
2022-12-03T14:47:16.389Z,1.60
2022-12-03T14:49:43.454Z,1.50
2022-12-03T14:52:12.493Z,1.60
2022-12-03T14:54:42.309Z,1.60
2022-12-03T14:57:13.159Z,1.60
2022-12-03T14:59:43.748Z,1.70
2022-12-03T15:02:12.152Z,1.60
2022-12-03T15:04:40.229Z,1.60
2022-12-03T15:07:07.612Z,1.70
2022-12-03T15:09:34.849Z,1.70
2022-12-03T15:12:03.210Z,1.70
2022-12-03T15:14:29.909Z,1.60
2022-12-03T15:16:56.846Z,1.70
2022-12-03T15:19:23.901Z,1.70
2022-12-03T15:21:50.558Z,1.70
2022-12-03T15:24:17.284Z,1.70
2022-12-03T15:26:44.018Z,1.60
2022-12-03T15:29:12.014Z,1.70
2022-12-03T15:31:38.882Z,1.70
2022-12-03T15:34:05.655Z,1.70
2022-12-03T15:36:32.357Z,1.60
2022-12-03T15:38:59.533Z,1.60
2022-12-03T15:41:29.384Z,1.60
2022-12-03T15:43:58.934Z,1.60
2022-12-03T15:46:27.663Z,1.70
2022-12-03T15:48:55.645Z,1.70
2022-12-03T15:51:22.582Z,1.70
2022-12-03T15:53:49.229Z,1.70
2022-12-03T15:56:16.045Z,1.70
2022-12-03T15:58:42.752Z,1.60
2022-12-03T16:01:09.981Z,1.60
2022-12-03T16:03:36.852Z,1.60
2022-12-03T16:06:03.934Z,1.60
2022-12-03T16:08:30.787Z,1.50
2022-12-03T16:10:57.643Z,1.60
2022-12-03T16:13:24.489Z,1.60
2022-12-03T16:15:51.376Z,1.60
2022-12-03T16:18:18.069Z,1.60
2022-12-03T16:20:44.856Z,1.60
2022-12-03T16:23:11.711Z,1.60
2022-12-03T16:25:38.561Z,1.60
2022-12-03T16:28:06.252Z,1.60
2022-12-03T16:30:32.931Z,1.60
2022-12-03T16:32:59.603Z,1.50
2022-12-03T16:35:26.265Z,1.60
2022-12-03T16:37:52.913Z,1.60
2022-12-03T16:40:19.767Z,1.50
2022-12-03T16:42:46.457Z,1.50
2022-12-03T16:45:32.995Z,1.50
2022-12-03T16:48:01.575Z,1.50
2022-12-03T16:50:30.141Z,1.50
2022-12-03T16:52:57.604Z,1.50
2022-12-03T16:55:24.576Z,1.50
2022-12-03T16:57:51.365Z,1.50
2022-12-03T17:00:18.254Z,1.40
2022-12-03T17:02:44.999Z,1.40
2022-12-03T17:05:11.810Z,1.40
2022-12-03T17:07:38.564Z,1.40
2022-12-03T17:10:06.232Z,1.40
2022-12-03T17:13:00.733Z,1.40
2022-12-03T17:15:19.681Z,1.40
2022-12-03T17:17:46.518Z,1.50
2022-12-03T17:20:14.833Z,1.40
2022-12-03T17:22:41.994Z,1.40
2022-12-03T17:25:09.747Z,1.40
2022-12-03T17:27:40.767Z,1.40
2022-12-03T17:30:15.734Z,1.40
2022-12-03T17:32:42.545Z,1.40
2022-12-03T17:35:10.509Z,1.40
2022-12-03T17:37:39.401Z,1.40
2022-12-03T17:40:07.583Z,1.30
2022-12-03T17:42:34.274Z,1.30
2022-12-03T17:45:01.069Z,1.40
2022-12-03T17:47:27.805Z,1.30
2022-12-03T17:49:55.480Z,1.30
2022-12-03T17:52:22.779Z,1.30
2022-12-03T17:55:09.677Z,1.30
2022-12-03T17:57:36.049Z,1.20
2022-12-03T18:00:03.110Z,1.20
2022-12-03T18:02:39.080Z,1.20
2022-12-03T18:05:05.938Z,1.20
2022-12-03T18:07:32.708Z,1.20
2022-12-03T18:09:59.585Z,1.20
2022-12-03T18:12:26.363Z,1.20
2022-12-03T18:14:53.041Z,1.20
2022-12-03T18:17:19.730Z,1.30
2022-12-03T18:19:46.387Z,1.20
2022-12-03T18:22:13.078Z,1.20
2022-12-03T18:24:40.236Z,1.20
2022-12-03T18:27:07.061Z,1.20
2022-12-03T18:29:33.854Z,1.20
2022-12-03T18:32:00.820Z,1.30
2022-12-03T18:34:27.664Z,1.10
2022-12-03T18:36:54.630Z,1.20
2022-12-03T18:39:32.495Z,1.20
2022-12-03T18:41:59.135Z,1.10
2022-12-03T18:44:25.981Z,1.20
2022-12-03T18:46:54.292Z,1.20
2022-12-03T18:49:21.872Z,1.20
2022-12-03T18:51:49.010Z,1.30
2022-12-03T18:54:17.310Z,1.30
2022-12-03T18:56:44.010Z,1.20
2022-12-03T18:59:11.095Z,1.10
2022-12-03T19:01:37.980Z,1.10
2022-12-03T19:04:04.906Z,1.20
2022-12-03T19:06:32.509Z,1.10
2022-12-03T19:08:59.224Z,1.10
2022-12-03T19:11:25.906Z,1.10
2022-12-03T19:13:52.574Z,1.10
2022-12-03T19:16:19.359Z,1.10
2022-12-03T19:18:46.118Z,1.10
2022-12-03T19:21:15.470Z,1.10
2022-12-03T19:23:47.242Z,1.20
2022-12-03T19:26:25.832Z,1.10
2022-12-03T19:28:53.759Z,1.10
2022-12-03T19:31:20.794Z,1.10
2022-12-03T19:33:48.086Z,1.10
2022-12-03T19:36:23.390Z,1.10
2022-12-03T19:38:56.700Z,1.20
2022-12-03T19:41:27.337Z,1.20
2022-12-03T19:43:55.665Z,1.20
2022-12-03T19:46:24.795Z,1.10
2022-12-03T19:48:51.889Z,1.10
2022-12-03T19:51:35.307Z,1.10
2022-12-03T19:54:04.340Z,1.10
2022-12-03T19:56:31.514Z,1.10
2022-12-03T19:58:58.415Z,1.10
2022-12-03T20:01:30.942Z,1.10
2022-12-03T20:03:59.322Z,1.10
2022-12-03T20:06:28.557Z,1.10
2022-12-03T20:08:59.918Z,1.10
2022-12-03T20:11:30.396Z,1.10
2022-12-03T20:14:03.050Z,1.10
2022-12-03T20:16:30.006Z,1.10
2022-12-03T20:18:58.739Z,1.20
2022-12-03T20:21:25.521Z,1.10
2022-12-03T20:23:52.258Z,1.10
2022-12-03T20:26:21.152Z,1.20
2022-12-03T20:28:48.167Z,1.10
2022-12-03T20:31:17.798Z,1.00
2022-12-03T20:33:49.714Z,1.00
2022-12-03T20:36:18.934Z,0.90
2022-12-03T20:38:45.837Z,0.90
2022-12-03T20:41:18.301Z,0.90
2022-12-03T20:43:45.584Z,0.90
2022-12-03T20:46:15.021Z,0.90
2022-12-03T20:48:43.911Z,1.00
2022-12-03T20:51:14.085Z,1.00
2022-12-03T20:53:40.927Z,0.90
2022-12-03T20:56:08.377Z,0.90
2022-12-03T20:58:35.841Z,0.90
2022-12-03T21:01:18.664Z,0.90
2022-12-03T21:03:46.302Z,0.90
2022-12-03T21:06:13.914Z,0.80
2022-12-03T21:08:42.385Z,0.90
2022-12-03T21:11:18.690Z,0.90
2022-12-03T21:13:46.405Z,1.00
2022-12-03T21:16:16.040Z,1.00
2022-12-03T21:18:43.113Z,1.00
2022-12-03T21:21:11.980Z,1.00
2022-12-03T21:23:38.810Z,1.00
2022-12-03T21:26:11.614Z,1.00
2022-12-03T21:28:38.661Z,1.00
2022-12-03T21:31:08.383Z,1.00
2022-12-03T21:33:35.811Z,1.00
2022-12-03T21:36:02.975Z,1.00
2022-12-03T21:38:30.537Z,0.90
2022-12-03T21:40:58.416Z,1.00
2022-12-03T21:43:25.625Z,1.00
2022-12-03T21:45:53.292Z,1.00
2022-12-03T21:48:20.767Z,1.00
2022-12-03T21:51:01.378Z,1.00
2022-12-03T21:53:28.899Z,1.00
2022-12-03T21:55:55.711Z,1.10
2022-12-03T21:58:22.335Z,1.00
2022-12-03T22:00:49.018Z,0.90
2022-12-03T22:03:15.735Z,0.90
2022-12-03T22:05:42.544Z,1.00
2022-12-03T22:08:09.692Z,1.00
2022-12-03T22:10:36.870Z,1.00
2022-12-03T22:13:03.557Z,1.00
2022-12-03T22:15:30.330Z,1.00
2022-12-03T22:17:56.981Z,1.10
2022-12-03T22:20:23.698Z,1.10
2022-12-03T22:22:50.431Z,1.10
2022-12-03T22:25:17.255Z,1.10
2022-12-03T22:27:43.950Z,1.10
2022-12-03T22:30:10.862Z,1.10
2022-12-03T22:32:37.489Z,1.10
2022-12-03T22:35:04.886Z,1.10
2022-12-03T22:37:32.765Z,1.10
2022-12-03T22:39:59.518Z,1.10
2022-12-03T22:42:26.243Z,1.00
2022-12-03T22:44:53.046Z,1.10
2022-12-03T22:47:19.735Z,1.00
2022-12-03T22:49:46.356Z,1.00
2022-12-03T22:52:13.026Z,1.00
2022-12-03T22:54:39.663Z,1.00
2022-12-03T22:57:06.348Z,1.00
2022-12-03T22:59:33.059Z,1.10
2022-12-03T23:01:59.785Z,1.00
2022-12-03T23:04:26.410Z,1.10
2022-12-03T23:06:53.100Z,1.00
2022-12-03T23:09:19.810Z,1.00
2022-12-03T23:11:46.662Z,0.90
2022-12-03T23:14:13.479Z,1.00
2022-12-03T23:16:40.923Z,1.00
2022-12-03T23:19:07.766Z,0.90
2022-12-03T23:21:35.422Z,0.90
2022-12-03T23:24:04.194Z,0.90
2022-12-03T23:26:34.505Z,1.00
2022-12-03T23:29:01.195Z,0.90
2022-12-03T23:31:29.981Z,1.00
2022-12-03T23:33:58.001Z,1.00
2022-12-03T23:36:26.990Z,1.00
2022-12-03T23:38:54.595Z,1.10
2022-12-03T23:41:23.150Z,1.00
2022-12-03T23:43:49.945Z,1.00
2022-12-03T23:46:20.590Z,1.00
2022-12-03T23:48:47.386Z,1.00
2022-12-03T23:51:17.923Z,1.00
2022-12-03T23:53:45.162Z,1.00
2022-12-03T23:56:23.975Z,1.00
2022-12-03T23:58:51.157Z,1.00
